createdAt,value
2023-05-25T00:01:02.933Z,94350.66
2023-05-25T00:03:31.917Z,94346.81
2023-05-25T00:06:01.743Z,94353.84
2023-05-25T00:08:29.423Z,94334.44
2023-05-25T00:10:56.340Z,94345.31
2023-05-25T00:13:23.108Z,94353.91
2023-05-25T00:15:49.983Z,94352.34
2023-05-25T00:18:16.794Z,94351.69
2023-05-25T00:20:44.727Z,94353.28
2023-05-25T00:23:11.585Z,94353.59
2023-05-25T00:25:38.442Z,94358.16
2023-05-25T00:28:05.314Z,94353.16
2023-05-25T00:30:32.062Z,94358.81
2023-05-25T00:32:59.925Z,94356.00
2023-05-25T00:35:26.920Z,94353.38
2023-05-25T00:37:53.643Z,94335.47
2023-05-25T00:40:20.575Z,94334.91
2023-05-25T00:42:47.655Z,94348.97
2023-05-25T00:45:14.558Z,94351.13
2023-05-25T00:47:41.636Z,94345.91
2023-05-25T00:50:09.936Z,94348.84
2023-05-25T00:52:36.881Z,94345.66
2023-05-25T00:55:04.377Z,94352.69
2023-05-25T00:57:34.357Z,94351.69
2023-05-25T01:00:02.770Z,94343.28
2023-05-25T01:02:31.148Z,94358.50
2023-05-25T01:05:01.101Z,94357.91
2023-05-25T01:07:28.593Z,94363.03
2023-05-25T01:10:02.403Z,94357.81
2023-05-25T01:12:29.799Z,94358.38
2023-05-25T01:14:57.219Z,94355.75
2023-05-25T01:17:24.072Z,94359.97
2023-05-25T01:20:08.798Z,94360.19
2023-05-25T01:22:46.042Z,94365.63
2023-05-25T01:25:22.071Z,94371.06
2023-05-25T01:27:54.620Z,94361.44
2023-05-25T01:30:22.624Z,94360.97
2023-05-25T01:32:49.725Z,94360.75
2023-05-25T01:35:17.191Z,94350.31
2023-05-25T01:37:47.731Z,94354.97
2023-05-25T01:40:15.816Z,94349.53
2023-05-25T01:42:42.710Z,94349.41
2023-05-25T01:45:10.891Z,94354.97
2023-05-25T01:47:55.797Z,94351.00
2023-05-25T01:50:31.582Z,94359.28
2023-05-25T01:53:05.008Z,94367.66
2023-05-25T01:55:38.232Z,94373.22
2023-05-25T01:58:05.734Z,94353.41
2023-05-25T02:00:32.875Z,94358.72
2023-05-25T02:03:00.035Z,94359.97
2023-05-25T02:05:28.075Z,94360.75
2023-05-25T02:07:54.989Z,94359.97
2023-05-25T02:10:21.815Z,94365.50
2023-05-25T02:12:48.611Z,94359.50
2023-05-25T02:15:16.276Z,94361.53
2023-05-25T02:17:43.568Z,94348.63
2023-05-25T02:20:11.855Z,94352.16
2023-05-25T02:22:38.621Z,94345.88
2023-05-25T02:25:05.926Z,94341.16
2023-05-25T02:27:32.677Z,94346.81
2023-05-25T02:29:59.418Z,94350.66
2023-05-25T02:32:26.199Z,94350.53
2023-05-25T02:34:53.024Z,94353.84
2023-05-25T02:37:19.808Z,94351.09
2023-05-25T02:39:46.646Z,94349.09
2023-05-25T02:42:13.409Z,94365.19
2023-05-25T02:44:40.204Z,94374.25
2023-05-25T02:47:07.860Z,94371.75
2023-05-25T02:49:34.733Z,94371.19
2023-05-25T02:52:01.557Z,94375.72
2023-05-25T02:54:28.315Z,94379.91
2023-05-25T02:56:55.110Z,94374.47
2023-05-25T02:59:21.986Z,94376.84
2023-05-25T03:01:48.862Z,94389.09
2023-05-25T03:04:15.790Z,94389.56
2023-05-25T03:06:43.440Z,94394.56
2023-05-25T03:09:10.224Z,94390.94
2023-05-25T03:11:37.100Z,94391.94
2023-05-25T03:14:03.883Z,94379.00
2023-05-25T03:16:30.679Z,94392.03
2023-05-25T03:18:57.494Z,94395.44
2023-05-25T03:21:24.329Z,94387.16
2023-05-25T03:23:51.202Z,94384.78
2023-05-25T03:26:17.955Z,94397.75
2023-05-25T03:28:44.728Z,94388.19
2023-05-25T03:31:12.682Z,94397.63
2023-05-25T03:33:39.656Z,94403.84
2023-05-25T03:36:09.048Z,94398.19
2023-05-25T03:38:37.174Z,94396.16
2023-05-25T03:41:04.173Z,94396.03
2023-05-25T03:43:31.533Z,94404.53
2023-05-25T03:45:58.401Z,94411.78
2023-05-25T03:48:25.161Z,94410.22
2023-05-25T03:50:52.069Z,94416.31
2023-05-25T03:53:18.810Z,94410.66
2023-05-25T03:55:45.821Z,94415.41
2023-05-25T03:58:13.353Z,94414.75
2023-05-25T04:00:40.284Z,94422.69
2023-05-25T04:03:07.227Z,94414.03
2023-05-25T04:05:34.127Z,94426.06
2023-05-25T04:08:00.984Z,94423.34
2023-05-25T04:10:27.757Z,94423.56
2023-05-25T04:12:56.832Z,94421.44
2023-05-25T04:15:23.692Z,94421.44
2023-05-25T04:17:50.529Z,94415.28
2023-05-25T04:20:17.406Z,94417.56
2023-05-25T04:22:45.185Z,94427.19
2023-05-25T04:25:11.961Z,94428.13
2023-05-25T04:27:38.721Z,94426.97
2023-05-25T04:30:06.141Z,94432.53
2023-05-25T04:32:33.003Z,94433.09
2023-05-25T04:34:59.699Z,94426.88
2023-05-25T04:37:30.668Z,94441.19
2023-05-25T04:39:58.470Z,94438.22
2023-05-25T04:42:25.980Z,94431.88
2023-05-25T04:44:55.883Z,94439.44
2023-05-25T04:47:25.199Z,94443.53
2023-05-25T04:49:52.032Z,94440.59
2023-05-25T04:52:18.752Z,94436.16
2023-05-25T04:54:46.992Z,94433.97
2023-05-25T04:57:13.739Z,94437.59
2023-05-25T04:59:41.165Z,94428.78
2023-05-25T05:02:08.782Z,94436.53
2023-05-25T05:04:37.410Z,94433.16
2023-05-25T05:07:04.433Z,94445.09
2023-05-25T05:09:31.241Z,94442.38
2023-05-25T05:11:58.048Z,94447.53
2023-05-25T05:14:24.984Z,94446.03
2023-05-25T05:16:52.102Z,94449.09
2023-05-25T05:19:19.070Z,94459.22
2023-05-25T05:21:46.606Z,94456.47
2023-05-25T05:24:13.481Z,94455.78
2023-05-25T05:26:56.272Z,94452.03
2023-05-25T05:29:24.909Z,94460.09
2023-05-25T05:31:51.855Z,94463.09
2023-05-25T05:34:18.592Z,94460.81
2023-05-25T05:36:57.223Z,94454.16
2023-05-25T05:39:26.357Z,94466.63
2023-05-25T05:41:53.958Z,94465.44
2023-05-25T05:44:21.515Z,94465.72
2023-05-25T05:46:48.403Z,94479.50
2023-05-25T05:49:15.725Z,94484.97
2023-05-25T05:51:42.490Z,94473.19
2023-05-25T05:54:09.312Z,94473.06
2023-05-25T05:56:36.370Z,94473.34
2023-05-25T05:59:03.125Z,94476.69
2023-05-25T06:01:29.950Z,94480.88
2023-05-25T06:03:56.854Z,94479.50
2023-05-25T06:06:23.723Z,94473.56
2023-05-25T06:08:50.639Z,94469.84
2023-05-25T06:11:17.732Z,94475.38
2023-05-25T06:13:46.452Z,94475.41
2023-05-25T06:16:13.510Z,94480.72
2023-05-25T06:18:40.431Z,94477.75
2023-05-25T06:21:07.288Z,94479.78
2023-05-25T06:23:34.087Z,94479.94
2023-05-25T06:26:06.817Z,94484.06
2023-05-25T06:28:33.862Z,94481.44
2023-05-25T06:31:00.838Z,94478.50
2023-05-25T06:33:27.670Z,94481.47
2023-05-25T06:35:58.367Z,94481.72
2023-05-25T06:38:25.207Z,94479.91
2023-05-25T06:40:52.022Z,94484.91
2023-05-25T06:43:19.012Z,94477.53
2023-05-25T06:45:46.421Z,94479.88
2023-05-25T06:48:13.624Z,94478.59
2023-05-25T06:50:40.548Z,94476.19
2023-05-25T06:53:07.356Z,94472.13
2023-05-25T06:55:34.161Z,94486.59
2023-05-25T06:58:00.932Z,94487.72
2023-05-25T07:00:27.736Z,94485.72
2023-05-25T07:02:54.660Z,94488.84
2023-05-25T07:05:22.119Z,94477.75
2023-05-25T07:07:49.064Z,94489.38
2023-05-25T07:10:15.864Z,94488.31
2023-05-25T07:12:42.846Z,94478.84
2023-05-25T07:15:10.655Z,94482.53
2023-05-25T07:17:37.519Z,94477.22
2023-05-25T07:20:06.368Z,94478.09
2023-05-25T07:22:33.367Z,94468.59
2023-05-25T07:25:03.345Z,94471.00
2023-05-25T07:27:30.664Z,94469.19
2023-05-25T07:29:57.511Z,94473.94
2023-05-25T07:32:24.298Z,94469.25
2023-05-25T07:34:51.213Z,94469.00
2023-05-25T07:37:18.034Z,94472.03
2023-05-25T07:39:44.971Z,94470.63
2023-05-25T07:42:11.864Z,94470.78
2023-05-25T07:44:39.023Z,94466.41
2023-05-25T07:47:07.204Z,94462.53
2023-05-25T07:49:34.166Z,94464.91
2023-05-25T07:52:01.115Z,94463.84
2023-05-25T07:54:27.941Z,94467.00
2023-05-25T07:56:54.836Z,94462.72
2023-05-25T07:59:21.573Z,94468.47
2023-05-25T08:01:48.498Z,94465.94
2023-05-25T08:04:15.739Z,94467.06
2023-05-25T08:06:44.423Z,94475.78
2023-05-25T08:09:13.366Z,94468.00
2023-05-25T08:11:40.225Z,94464.44
2023-05-25T08:14:06.986Z,94465.53
2023-05-25T08:16:33.882Z,94464.72
2023-05-25T08:19:01.826Z,94457.22
2023-05-25T08:21:28.752Z,94457.78
2023-05-25T08:23:56.447Z,94456.25
2023-05-25T08:28:53.093Z,94458.81
2023-05-25T08:31:19.917Z,94454.66
2023-05-25T08:33:46.849Z,94454.84
2023-05-25T08:36:13.725Z,94460.38
2023-05-25T08:38:40.581Z,94457.72
2023-05-25T08:41:07.693Z,94455.50
2023-05-25T08:43:34.933Z,94457.06
2023-05-25T08:46:06.411Z,94457.31
2023-05-25T08:48:41.904Z,94461.84
2023-05-25T08:51:11.522Z,94464.75
2023-05-25T08:53:41.248Z,94457.09
2023-05-25T08:56:14.554Z,94447.94
2023-05-25T08:58:47.284Z,94455.19
2023-05-25T09:01:15.874Z,94455.72
2023-05-25T09:03:44.198Z,94452.78
2023-05-25T09:06:11.887Z,94460.03
2023-05-25T09:08:39.831Z,94451.22
2023-05-25T09:11:07.857Z,94451.38
2023-05-25T09:13:35.434Z,94456.47
2023-05-25T09:16:02.458Z,94450.75
2023-05-25T09:18:29.360Z,94449.84
2023-05-25T09:20:56.914Z,94444.72
2023-05-25T09:23:24.190Z,94449.69
2023-05-25T09:25:51.660Z,94447.88
2023-05-25T09:30:51.357Z,94442.97
2023-05-25T09:33:18.242Z,94451.03
2023-05-25T09:35:46.639Z,94446.59
2023-05-25T09:38:15.740Z,94446.91
2023-05-25T09:40:43.345Z,94446.09
2023-05-25T09:43:12.271Z,94440.69
2023-05-25T09:45:39.144Z,94452.41
2023-05-25T09:48:07.190Z,94449.25
2023-05-25T09:50:34.190Z,94447.25
2023-05-25T09:53:01.418Z,94442.88
2023-05-25T09:55:40.067Z,94448.47
2023-05-25T09:58:15.939Z,94439.22
2023-05-25T10:00:42.782Z,94434.91
2023-05-25T10:03:09.984Z,94421.56
2023-05-25T10:05:36.820Z,94429.75
2023-05-25T10:08:04.365Z,94437.28
2023-05-25T10:10:31.430Z,94432.38
2023-05-25T10:12:59.183Z,94433.97
2023-05-25T10:15:26.539Z,94439.63
2023-05-25T10:17:55.876Z,94436.97
2023-05-25T10:20:29.316Z,94433.25
2023-05-25T10:22:59.851Z,94431.81
2023-05-25T10:25:33.567Z,94430.81
2023-05-25T10:28:08.047Z,94433.38
2023-05-25T10:30:37.136Z,94431.53
2023-05-25T10:33:04.256Z,94431.25
2023-05-25T10:35:35.593Z,94433.81
2023-05-25T10:38:06.339Z,94422.91
2023-05-25T10:40:34.905Z,94422.31
2023-05-25T10:43:02.509Z,94417.91
2023-05-25T10:45:29.713Z,94424.94
2023-05-25T10:47:56.786Z,94422.94
2023-05-25T10:50:27.253Z,94423.84
2023-05-25T10:53:05.899Z,94423.31
2023-05-25T10:55:54.036Z,94413.56
2023-05-25T10:58:22.546Z,94417.22
2023-05-25T11:01:11.370Z,94417.44
2023-05-25T11:03:44.979Z,94413.06
2023-05-25T11:06:13.839Z,94414.03
2023-05-25T11:09:00.384Z,94399.78
2023-05-25T11:11:42.183Z,94400.72
2023-05-25T11:14:24.333Z,94402.47
2023-05-25T11:17:15.191Z,94400.41
2023-05-25T11:19:54.075Z,94395.47
2023-05-25T11:22:31.862Z,94391.28
2023-05-25T11:25:03.438Z,94398.78
2023-05-25T11:27:31.560Z,94397.03
2023-05-25T11:29:59.617Z,94395.69
2023-05-25T11:32:27.426Z,94398.03
2023-05-25T11:34:55.860Z,94391.41
2023-05-25T11:37:29.031Z,94389.88
2023-05-25T11:39:56.183Z,94387.56
2023-05-25T11:42:26.416Z,94382.84
2023-05-25T11:44:53.799Z,94392.09
2023-05-25T11:47:25.263Z,94378.09
2023-05-25T11:49:52.463Z,94384.97
2023-05-25T11:52:20.452Z,94369.72
2023-05-25T11:54:47.777Z,94367.06
2023-05-25T11:57:15.402Z,94364.41
2023-05-25T11:59:49.480Z,94357.13
2023-05-25T12:02:16.829Z,94354.97
2023-05-25T12:04:57.477Z,94367.53
2023-05-25T12:07:26.781Z,94365.09
2023-05-25T12:10:05.749Z,94355.56
2023-05-25T12:12:40.145Z,94347.50
2023-05-25T12:15:08.151Z,94349.19
2023-05-25T12:17:35.060Z,94349.66
2023-05-25T12:20:02.102Z,94351.94
2023-05-25T12:22:29.135Z,94341.00
2023-05-25T12:24:56.090Z,94357.03
2023-05-25T12:27:22.920Z,94349.56
2023-05-25T12:29:50.129Z,94350.16
2023-05-25T12:32:17.062Z,94341.41
2023-05-25T12:34:43.853Z,94340.53
2023-05-25T12:37:21.385Z,94341.00
2023-05-25T12:39:48.697Z,94341.53
2023-05-25T12:42:16.994Z,94342.19
2023-05-25T12:44:46.686Z,94339.19
2023-05-25T12:47:23.661Z,94340.69
2023-05-25T12:49:52.232Z,94339.31
2023-05-25T12:52:38.525Z,94332.78
2023-05-25T12:55:27.658Z,94335.63
2023-05-25T12:57:55.213Z,94336.63
2023-05-25T13:00:23.788Z,94326.31
2023-05-25T13:02:52.108Z,94330.84
2023-05-25T13:05:22.320Z,94330.69
2023-05-25T13:07:49.672Z,94331.31
2023-05-25T13:10:20.473Z,94327.94
2023-05-25T13:12:48.312Z,94324.47
2023-05-25T13:15:18.713Z,94323.00
2023-05-25T13:17:46.124Z,94319.75
2023-05-25T13:20:14.430Z,94313.69
2023-05-25T13:22:46.172Z,94315.66
2023-05-25T13:25:14.647Z,94318.38
2023-05-25T13:27:46.087Z,94305.19
2023-05-25T13:30:13.459Z,94312.22
2023-05-25T13:32:40.621Z,94302.38
2023-05-25T13:35:08.176Z,94307.56
2023-05-25T13:37:35.078Z,94296.56
2023-05-25T13:40:01.884Z,94311.59
2023-05-25T13:42:28.966Z,94299.88
2023-05-25T13:44:56.135Z,94296.13
2023-05-25T13:47:23.061Z,94298.31
2023-05-25T13:49:49.960Z,94296.13
2023-05-25T13:52:16.865Z,94293.31
2023-05-25T13:54:43.775Z,94298.66
2023-05-25T13:57:10.808Z,94300.03
2023-05-25T13:59:38.341Z,94303.00
2023-05-25T14:02:05.895Z,94295.63
2023-05-25T14:04:32.670Z,94301.81
2023-05-25T14:06:59.695Z,94303.00
2023-05-25T14:09:26.699Z,94296.78
2023-05-25T14:11:53.755Z,94294.22
2023-05-25T14:14:31.342Z,94298.06
2023-05-25T14:16:59.957Z,94293.66
2023-05-25T14:19:26.780Z,94292.91
2023-05-25T14:22:11.002Z,94291.63
2023-05-25T14:24:39.825Z,94293.81
2023-05-25T14:27:09.354Z,94302.03
2023-05-25T14:29:36.316Z,94299.69
2023-05-25T14:32:03.220Z,94298.28
2023-05-25T14:34:30.225Z,94289.81
2023-05-25T14:36:57.053Z,94301.00
2023-05-25T14:39:23.918Z,94292.34
2023-05-25T14:41:50.736Z,94286.44
2023-05-25T14:44:17.690Z,94292.59
2023-05-25T14:46:44.687Z,94283.72
2023-05-25T14:49:11.603Z,94284.97
2023-05-25T14:51:38.559Z,94293.91
2023-05-25T14:54:07.293Z,94283.16
2023-05-25T14:56:34.860Z,94293.56
2023-05-25T14:59:01.736Z,94286.06
2023-05-25T15:01:29.606Z,94288.56
2023-05-25T15:03:57.010Z,94278.88
2023-05-25T15:06:24.066Z,94281.97
2023-05-25T15:08:51.085Z,94277.09
2023-05-25T15:11:18.342Z,94277.44
2023-05-25T15:13:45.374Z,94277.16
2023-05-25T15:16:16.064Z,94280.75
2023-05-25T15:18:43.371Z,94289.19
2023-05-25T15:21:10.443Z,94284.56
2023-05-25T15:23:37.410Z,94276.25
2023-05-25T15:26:04.942Z,94277.59
2023-05-25T15:28:31.932Z,94280.88
2023-05-25T15:31:01.589Z,94279.97
2023-05-25T15:33:43.585Z,94282.38
2023-05-25T15:36:16.768Z,94291.44
2023-05-25T15:38:44.655Z,94286.75
2023-05-25T15:41:15.062Z,94288.25
2023-05-25T15:43:42.242Z,94287.22
2023-05-25T15:46:09.116Z,94288.59
2023-05-25T15:48:35.962Z,94290.41
2023-05-25T15:51:02.939Z,94289.22
2023-05-25T15:53:30.475Z,94281.66
2023-05-25T15:55:57.488Z,94289.94
2023-05-25T15:58:24.375Z,94290.19
2023-05-25T16:00:51.216Z,94296.97
2023-05-25T16:03:18.284Z,94293.25
2023-05-25T16:05:45.402Z,94297.28
2023-05-25T16:08:14.162Z,94298.78
2023-05-25T16:10:41.075Z,94298.53
2023-05-25T16:13:07.991Z,94302.28
2023-05-25T16:15:34.769Z,94306.13
2023-05-25T16:18:01.616Z,94295.41
2023-05-25T16:20:28.471Z,94302.56
2023-05-25T16:22:55.426Z,94300.88
2023-05-25T16:25:22.328Z,94301.59
2023-05-25T16:27:49.139Z,94303.56
2023-05-25T16:30:16.111Z,94303.16
2023-05-25T16:32:43.014Z,94304.69
2023-05-25T16:35:10.048Z,94310.69
2023-05-25T16:37:36.881Z,94305.91
2023-05-25T16:40:03.922Z,94314.94
2023-05-25T16:42:30.819Z,94323.94
2023-05-25T16:44:57.607Z,94328.88
2023-05-25T16:47:24.355Z,94331.03
2023-05-25T16:49:51.123Z,94329.41
2023-05-25T16:52:17.925Z,94335.72
2023-05-25T16:54:44.757Z,94342.03
2023-05-25T16:57:12.197Z,94350.69
2023-05-25T16:59:39.474Z,94353.22
2023-05-25T17:02:06.875Z,94363.59
2023-05-25T17:04:33.745Z,94362.91
2023-05-25T17:07:00.558Z,94366.06
2023-05-25T17:09:27.647Z,94369.28
2023-05-25T17:11:59.464Z,94369.59
2023-05-25T17:14:26.372Z,94370.72
2023-05-25T17:16:53.448Z,94381.97
2023-05-25T17:19:20.192Z,94385.06
2023-05-25T17:21:47.736Z,94388.09
2023-05-25T17:24:14.571Z,94382.44
2023-05-25T17:26:41.514Z,94387.41
2023-05-25T17:29:08.323Z,94387.69
2023-05-25T17:31:35.222Z,94386.16
2023-05-25T17:34:02.013Z,94388.63
2023-05-25T17:36:28.842Z,94387.09
2023-05-25T17:38:55.712Z,94390.06
2023-05-25T17:41:22.995Z,94395.91
2023-05-25T17:43:49.875Z,94401.53
2023-05-25T17:46:17.603Z,94398.66
2023-05-25T17:48:44.416Z,94394.72
2023-05-25T17:51:11.229Z,94395.84
2023-05-25T17:53:38.155Z,94402.66
2023-05-25T17:56:05.019Z,94401.38
2023-05-25T17:58:32.492Z,94404.56
2023-05-25T18:00:59.379Z,94410.94
2023-05-25T18:03:26.264Z,94414.75
2023-05-25T18:05:53.226Z,94424.78
2023-05-25T18:08:21.359Z,94420.63
2023-05-25T18:10:50.310Z,94433.03
2023-05-25T18:13:17.054Z,94437.81
2023-05-25T18:15:44.179Z,94438.69
2023-05-25T18:18:11.206Z,94445.31
2023-05-25T18:20:38.017Z,94445.06
2023-05-25T18:23:08.319Z,94455.09
2023-05-25T18:25:35.186Z,94456.94
2023-05-25T18:28:01.956Z,94455.63
2023-05-25T18:30:28.804Z,94453.00
2023-05-25T18:32:55.683Z,94451.66
2023-05-25T18:35:22.502Z,94458.28
2023-05-25T18:37:49.380Z,94469.91
2023-05-25T18:40:16.604Z,94471.72
2023-05-25T18:42:43.548Z,94467.78
2023-05-25T18:45:10.643Z,94479.63
2023-05-25T18:47:37.438Z,94478.31
2023-05-25T18:50:04.624Z,94481.97
2023-05-25T18:52:31.376Z,94487.19
2023-05-25T18:54:58.152Z,94493.78
2023-05-25T18:57:24.932Z,94507.72
2023-05-25T18:59:52.245Z,94501.44
2023-05-25T19:02:21.494Z,94502.47
2023-05-25T19:04:48.487Z,94511.91
2023-05-25T19:07:15.227Z,94497.69
2023-05-25T19:09:42.455Z,94502.47
2023-05-25T19:12:09.469Z,94522.50
2023-05-25T19:14:36.743Z,94523.50
2023-05-25T19:17:03.559Z,94521.66
2023-05-25T19:19:30.303Z,94530.31
2023-05-25T19:21:57.375Z,94533.19
2023-05-25T19:24:24.119Z,94536.88
2023-05-25T19:26:50.904Z,94530.84
2023-05-25T19:29:18.004Z,94539.53
2023-05-25T19:31:44.957Z,94543.72
2023-05-25T19:34:11.746Z,94548.16
2023-05-25T19:36:38.442Z,94549.19
2023-05-25T19:39:05.251Z,94554.75
2023-05-25T19:41:31.984Z,94564.22
2023-05-25T19:43:58.754Z,94565.56
2023-05-25T19:46:25.591Z,94560.25
2023-05-25T19:48:52.518Z,94564.41
2023-05-25T19:51:19.284Z,94566.47
2023-05-25T19:53:48.230Z,94564.88
2023-05-25T19:56:14.947Z,94572.25
2023-05-25T19:58:42.328Z,94565.97
2023-05-25T20:01:09.199Z,94568.50
2023-05-25T20:03:36.268Z,94579.78
2023-05-25T20:06:03.324Z,94580.28
2023-05-25T20:08:30.138Z,94578.13
2023-05-25T20:10:56.983Z,94576.66
2023-05-25T20:13:24.081Z,94583.41
2023-05-25T20:15:50.994Z,94572.50
2023-05-25T20:18:18.349Z,94590.66
2023-05-25T20:20:45.371Z,94592.41
2023-05-25T20:23:12.606Z,94595.09
2023-05-25T20:25:39.607Z,94587.59
2023-05-25T20:28:06.453Z,94595.22
2023-05-25T20:30:33.221Z,94589.97
2023-05-25T20:33:00.328Z,94595.22
2023-05-25T20:35:27.317Z,94587.72
2023-05-25T20:37:55.118Z,94593.75
2023-05-25T20:40:22.310Z,94592.97
2023-05-25T20:42:49.163Z,94601.84
2023-05-25T20:45:16.012Z,94598.38
2023-05-25T20:47:42.814Z,94603.69
2023-05-25T20:50:10.236Z,94598.38
2023-05-25T20:52:37.340Z,94597.91
2023-05-25T20:55:04.342Z,94581.50
2023-05-25T20:57:31.363Z,94593.84
2023-05-25T21:00:00.173Z,94588.56
2023-05-25T21:02:29.085Z,94592.75
2023-05-25T21:04:56.246Z,94592.41
2023-05-25T21:07:23.049Z,94588.59
2023-05-25T21:09:49.902Z,94595.88
2023-05-25T21:12:16.958Z,94593.44
2023-05-25T21:14:43.923Z,94593.00
2023-05-25T21:17:11.216Z,94591.88
2023-05-25T21:19:38.387Z,94595.94
2023-05-25T21:22:05.213Z,94593.47
2023-05-25T21:24:32.107Z,94595.63
2023-05-25T21:26:58.838Z,94590.03
2023-05-25T21:29:25.515Z,94597.28
2023-05-25T21:31:52.278Z,94604.50
2023-05-25T21:34:19.079Z,94603.94
2023-05-25T21:36:45.775Z,94603.69
2023-05-25T21:39:12.465Z,94608.78
2023-05-25T21:41:41.318Z,94610.84
2023-05-25T21:44:08.074Z,94614.75
2023-05-25T21:46:34.838Z,94620.44
2023-05-25T21:49:01.673Z,94602.03
2023-05-25T21:51:30.178Z,94611.47
2023-05-25T21:53:56.953Z,94607.81
2023-05-25T21:56:23.663Z,94608.78
2023-05-25T21:58:50.453Z,94605.06
2023-05-25T22:01:17.199Z,94615.63
2023-05-25T22:03:44.080Z,94621.09
2023-05-25T22:06:10.877Z,94622.28
2023-05-25T22:08:37.741Z,94624.34
2023-05-25T22:11:04.778Z,94626.97
2023-05-25T22:13:31.470Z,94628.88
2023-05-25T22:15:58.230Z,94617.84
2023-05-25T22:18:24.990Z,94624.81
2023-05-25T22:20:51.893Z,94624.91
2023-05-25T22:23:18.651Z,94625.47
2023-05-25T22:25:45.614Z,94623.88
2023-05-25T22:28:12.588Z,94628.00
2023-05-25T22:30:39.519Z,94627.53
2023-05-25T22:33:06.358Z,94629.59
2023-05-25T22:35:33.242Z,94615.66
2023-05-25T22:37:59.967Z,94616.69
2023-05-25T22:40:26.690Z,94626.22
2023-05-25T22:42:53.399Z,94626.84
2023-05-25T22:45:21.205Z,94638.63
2023-05-25T22:47:48.696Z,94624.22
2023-05-25T22:50:15.500Z,94627.47
2023-05-25T22:52:42.330Z,94631.91
2023-05-25T22:55:09.568Z,94637.63
2023-05-25T22:57:36.375Z,94623.81
2023-05-25T23:00:04.411Z,94627.38
2023-05-25T23:02:31.222Z,94632.28
2023-05-25T23:04:58.068Z,94631.34
2023-05-25T23:07:24.881Z,94633.50
2023-05-25T23:09:51.662Z,94641.41
2023-05-25T23:12:18.475Z,94636.31
2023-05-25T23:14:45.383Z,94636.88
2023-05-25T23:17:12.190Z,94634.19
2023-05-25T23:19:40.300Z,94628.16
2023-05-25T23:22:07.105Z,94631.50
2023-05-25T23:24:33.898Z,94631.56
2023-05-25T23:27:00.893Z,94626.59
2023-05-25T23:29:27.659Z,94630.47
2023-05-25T23:31:54.654Z,94621.28
2023-05-25T23:34:21.694Z,94619.13
2023-05-25T23:36:48.729Z,94632.94
2023-05-25T23:39:15.563Z,94631.09
2023-05-25T23:41:42.342Z,94629.63
2023-05-25T23:44:09.210Z,94632.41
2023-05-25T23:46:36.036Z,94632.63
2023-05-25T23:49:03.064Z,94638.56
2023-05-25T23:51:30.452Z,94630.03
2023-05-25T23:53:57.205Z,94626.59
2023-05-25T23:56:24.045Z,94628.66
2023-05-25T23:58:50.874Z,94625.59
